Time;durP1;ratioP1;P1;durP2;ratioP2;P2;SDS_P1;SDS_P2;PMS_P1;PMS_P2;Temp;Humidity;BMP_temperature;BMP_pressure;BME280_temperature;BME280_humidity;BME280_pressure;Samples;Min_cycle;Max_cycle;Signal;HPM_P1;HPM_P2
2024/01/29 00:01:15;;;;;;;9.77;6.72;;;11.40;70.40;;;;;;20912820;28;20537;-56
2024/01/29 00:11:16;;;;;;;8.63;7.45;;;11.20;70.70;;;;;;20912367;28;20048;-56
2024/01/29 00:21:17;;;;;;;12.48;6.82;;;11.20;70.80;;;;;;20911974;28;20056;-55
2024/01/29 00:31:18;;;;;;;11.98;7.10;;;11.00;71.30;;;;;;20910384;28;20138;-55
2024/01/29 00:41:19;;;;;;;11.55;7.20;;;10.80;71.70;;;;;;20911306;28;20041;-56
2024/01/29 00:51:20;;;;;;;9.18;7.15;;;10.70;71.90;;;;;;20909252;28;20049;-55
2024/01/29 01:01:21;;;;;;;11.18;7.38;;;10.60;72.30;;;;;;20916911;28;20047;-56
2024/01/29 01:11:22;;;;;;;9.02;7.00;;;10.50;72.60;;;;;;20924032;28;20404;-56
2024/01/29 01:21:23;;;;;;;10.77;7.85;;;10.50;72.50;;;;;;20923173;28;20033;-55
2024/01/29 01:31:25;;;;;;;11.02;7.13;;;10.40;72.50;;;;;;20922463;28;20049;-55
2024/01/29 01:41:26;;;;;;;7.70;6.47;;;10.40;72.40;;;;;;20921724;28;20040;-56
2024/01/29 01:51:27;;;;;;;8.65;6.53;;;10.40;72.40;;;;;;20921191;28;20114;-56
2024/01/29 02:01:30;;;;;;;9.15;6.90;;;10.30;72.40;;;;;;20921433;28;20421;-55
2024/01/29 02:11:31;;;;;;;11.23;6.57;;;10.30;72.50;;;;;;20919212;28;20025;-56
2024/01/29 02:21:32;;;;;;;8.68;6.82;;;10.30;72.70;;;;;;20919677;28;20553;-56
2024/01/29 02:31:33;;;;;;;9.25;6.80;;;10.30;72.50;;;;;;20917799;28;20106;-56
2024/01/29 02:41:33;;;;;;;8.05;7.05;;;10.20;73.10;;;;;;20917106;28;20083;-55
2024/01/29 02:51:34;;;;;;;10.32;7.43;;;10.00;73.10;;;;;;20916520;28;20053;-56
2024/01/29 03:01:35;;;;;;;8.68;6.95;;;10.10;72.90;;;;;;20917867;28;20083;-55
2024/01/29 03:11:36;;;;;;;8.65;7.07;;;10.00;73.20;;;;;;20914853;28;20025;-55
2024/01/29 03:21:37;;;;;;;9.27;6.60;;;10.10;73.10;;;;;;20914449;28;20063;-57
2024/01/29 03:31:38;;;;;;;7.70;6.15;;;10.00;73.40;;;;;;20913377;28;20385;-56
2024/01/29 03:41:39;;;;;;;7.40;6.63;;;9.80;73.60;;;;;;20914024;28;20120;-55
2024/01/29 03:51:40;;;;;;;8.68;7.10;;;9.80;73.90;;;;;;20913208;28;20056;-58
2024/01/29 04:01:41;;;;;;;8.07;7.15;;;9.80;73.90;;;;;;20912924;28;20037;-57
2024/01/29 04:11:42;;;;;;;8.45;6.22;;;9.80;74.00;;;;;;20911210;28;20025;-56
2024/01/29 04:21:44;;;;;;;10.55;6.72;;;9.80;73.90;;;;;;20912131;28;20045;-57
2024/01/29 04:31:45;;;;;;;8.43;6.25;;;9.80;74.10;;;;;;20911725;28;20032;-56
2024/01/29 04:41:47;;;;;;;9.27;7.97;;;9.70;74.10;;;;;;20926447;28;20037;-55
2024/01/29 04:51:48;;;;;;;9.60;6.88;;;9.80;74.00;;;;;;20926040;28;20457;-56
2024/01/29 05:01:51;;;;;;;8.55;6.88;;;9.80;74.10;;;;;;20926044;28;20037;-58
2024/01/29 05:11:52;;;;;;;8.77;7.72;;;9.70;74.30;;;;;;20924353;28;20045;-55
2024/01/29 05:21:53;;;;;;;10.98;7.82;;;9.80;73.90;;;;;;20924569;28;20065;-55
2024/01/29 05:31:56;;;;;;;9.20;8.07;;;9.90;73.70;;;;;;20922490;28;20044;-56
2024/01/29 05:41:57;;;;;;;13.90;9.23;;;9.80;73.70;;;;;;20922024;28;20031;-56
2024/01/29 05:51:59;;;;;;;10.52;8.25;;;9.80;73.70;;;;;;20920559;28;20484;-55
2024/01/29 06:02:02;;;;;;;12.63;8.45;;;9.70;73.80;;;;;;20921483;28;20067;-56
2024/01/29 06:12:06;;;;;;;9.43;8.33;;;9.70;74.00;;;;;;20920835;28;20036;-57
2024/01/29 06:22:07;;;;;;;11.70;9.23;;;9.70;74.00;;;;;;20919988;28;20116;-56
2024/01/29 06:32:09;;;;;;;10.73;8.05;;;9.50;74.40;;;;;;20917864;28;20036;-55
2024/01/29 06:42:11;;;;;;;9.50;7.97;;;9.50;74.30;;;;;;20917294;28;20055;-57
2024/01/29 06:52:15;;;;;;;8.55;7.68;;;9.40;74.70;;;;;;20917457;28;20088;-55
2024/01/29 07:02:16;;;;;;;8.52;7.63;;;9.30;75.10;;;;;;20915805;28;20104;-56
2024/01/29 07:12:17;;;;;;;10.32;7.30;;;9.20;75.30;;;;;;20914492;28;20029;-57
2024/01/29 07:22:19;;;;;;;13.43;8.60;;;9.10;75.50;;;;;;20913915;28;20036;-57
2024/01/29 07:32:22;;;;;;;9.93;7.47;;;9.00;75.70;;;;;;20912918;28;20155;-57
2024/01/29 07:42:23;;;;;;;14.25;8.45;;;8.90;75.80;;;;;;20914094;28;20021;-56
2024/01/29 07:52:26;;;;;;;14.35;9.63;;;8.90;75.90;;;;;;20913281;28;20120;-57
2024/01/29 08:02:29;;;;;;;10.73;7.22;;;8.80;75.80;;;;;;20912661;28;20033;-57
2024/01/29 08:12:31;;;;;;;9.45;7.03;;;8.80;76.00;;;;;;20911443;28;20056;-58
2024/01/29 08:22:34;;;;;;;9.75;7.63;;;8.90;75.90;;;;;;20911488;28;20458;-56
2024/01/29 08:32:37;;;;;;;9.27;7.57;;;8.90;75.70;;;;;;20911563;28;20033;-57
2024/01/29 08:42:40;;;;;;;14.35;9.38;;;9.10;75.50;;;;;;20909749;28;20035;-57
2024/01/29 08:52:43;;;;;;;10.30;8.40;;;9.20;75.00;;;;;;20910065;28;20045;-58
2024/01/29 09:02:49;;;;;;;10.98;7.75;;;9.40;74.50;;;;;;20909064;28;20041;-57
2024/01/29 09:12:52;;;;;;;8.90;7.80;;;9.70;73.90;;;;;;20910099;28;20509;-58
2024/01/29 09:22:54;;;;;;;8.68;7.60;;;10.00;73.10;;;;;;20915665;28;20024;-56
2024/01/29 09:32:57;;;;;;;12.82;8.18;;;10.20;72.20;;;;;;20923356;28;20532;-57
2024/01/29 09:43:05;;;;;;;10.68;7.97;;;10.40;71.50;;;;;;20923131;28;20527;-56
2024/01/29 09:53:11;;;;;;;14.07;8.93;;;10.70;70.90;;;;;;20921148;28;20049;-54
2024/01/29 10:03:21;;;;;;;15.82;8.65;;;11.10;70.20;;;;;;20920057;28;20075;-56
2024/01/29 10:13:24;;;;;;;18.38;10.20;;;11.40;69.40;;;;;;20919974;28;20043;-55
2024/01/29 10:23:27;;;;;;;18.55;10.73;;;11.70;68.50;;;;;;20920435;28;20488;-57
2024/01/29 10:33:30;;;;;;;15.90;11.48;;;12.10;67.40;;;;;;20917412;28;20097;-56
2024/01/29 10:43:41;;;;;;;18.40;10.50;;;12.30;66.50;;;;;;20918214;28;20154;-55
2024/01/29 10:53:44;;;;;;;36.03;23.10;;;12.70;64.90;;;;;;20917696;28;20127;-56
2024/01/29 11:03:48;;;;;;;19.27;10.38;;;13.00;63.20;;;;;;20914691;28;20113;-56
2024/01/29 11:13:50;;;;;;;16.83;9.38;;;13.20;62.00;;;;;;20913896;28;20037;-56
2024/01/29 11:23:55;;;;;;;16.23;9.32;;;13.40;60.60;;;;;;20914386;28;20103;-56
2024/01/29 11:34:05;;;;;;;16.40;9.55;;;13.60;59.20;;;;;;20913950;28;20450;-58
2024/01/29 11:44:07;;;;;;;15.23;8.45;;;13.90;57.40;;;;;;20912704;28;20049;-56
2024/01/29 11:54:09;;;;;;;16.02;9.77;;;14.10;55.90;;;;;;20911668;28;20466;-56
2024/01/29 12:04:11;;;;;;;21.27;9.63;;;14.20;54.70;;;;;;20912142;28;20056;-56
2024/01/29 12:14:15;;;;;;;15.23;8.35;;;14.60;53.90;;;;;;20910243;28;20044;-57
2024/01/29 12:24:19;;;;;;;17.83;6.07;;;14.90;54.50;;;;;;20912059;28;20033;-57
2024/01/29 12:34:23;;;;;;;12.73;5.82;;;15.00;51.20;;;;;;20911047;28;20083;-55
2024/01/29 12:44:26;;;;;;;11.53;4.33;;;15.20;50.10;;;;;;20909616;28;20040;-56
2024/01/29 12:54:29;;;;;;;15.55;4.10;;;15.30;47.60;;;;;;20913520;28;20102;-58
2024/01/29 13:04:32;;;;;;;13.52;5.32;;;15.40;46.10;;;;;;20924523;28;20037;-57
2024/01/29 13:14:34;;;;;;;14.32;4.72;;;15.40;47.90;;;;;;20924969;28;20086;-58
2024/01/29 13:24:37;;;;;;;17.67;4.82;;;15.60;47.50;;;;;;20923233;28;20572;-58
2024/01/29 13:34:40;;;;;;;18.20;4.57;;;15.80;47.40;;;;;;20922484;28;20477;-55
2024/01/29 13:44:44;;;;;;;;;;;15.80;47.30;;;;;;20920935;28;20486;-57
2024/01/29 13:54:47;;;;;;;12.45;4.75;;;15.80;47.00;;;;;;20911900;28;19939;-56
2024/01/29 14:04:49;;;;;;;9.52;5.25;;;15.80;48.10;;;;;;20917679;28;20029;-55
2024/01/29 14:14:50;;;;;;;12.38;5.22;;;15.80;48.30;;;;;;20920346;28;20474;-56
2024/01/29 14:24:53;;;;;;;15.80;5.35;;;15.70;48.70;;;;;;20918813;28;20024;-57
2024/01/29 14:34:56;;;;;;;16.63;5.60;;;15.70;49.90;;;;;;20917888;28;20040;-58
2024/01/29 14:44:59;;;;;;;16.50;5.90;;;15.70;50.10;;;;;;20918333;28;20497;-56
2024/01/29 14:55:03;;;;;;;14.30;5.43;;;15.80;50.30;;;;;;20915929;28;20071;-57
2024/01/29 15:05:10;;;;;;;15.13;6.28;;;15.90;49.10;;;;;;20915487;28;20450;-57
2024/01/29 15:15:14;;;;;;;16.20;5.88;;;15.80;49.20;;;;;;20913203;28;20037;-57
2024/01/29 15:25:18;;;;;;;15.13;5.10;;;15.70;50.40;;;;;;20913527;28;20112;-57
2024/01/29 15:35:19;;;;;;;13.27;4.90;;;15.70;51.70;;;;;;20913843;28;20083;-56
2024/01/29 15:45:20;;;;;;;17.08;6.20;;;15.60;52.30;;;;;;20913647;28;20032;-58
2024/01/29 15:55:25;;;;;;;23.58;5.63;;;15.60;52.80;;;;;;20911422;28;20497;-58
2024/01/29 16:05:26;;;;;;;12.38;5.35;;;15.80;54.20;;;;;;20910547;28;20091;-57
2024/01/29 16:15:27;;;;;;;15.50;7.70;;;15.60;54.70;;;;;;20909622;28;20029;-57
2024/01/29 16:25:30;;;;;;;11.35;5.15;;;15.40;54.70;;;;;;20909840;28;20502;-56
2024/01/29 16:35:32;;;;;;;14.07;5.45;;;15.40;54.40;;;;;;20924928;28;20068;-57
2024/01/29 16:45:35;;;;;;;19.08;7.22;;;15.30;54.90;;;;;;20926516;28;20099;-55
2024/01/29 16:55:36;;;;;;;20.13;8.77;;;15.30;56.90;;;;;;20926378;28;20049;-57
2024/01/29 17:05:39;;;;;;;17.92;7.75;;;15.10;58.80;;;;;;20925814;28;20036;-57
2024/01/29 17:15:42;;;;;;;17.52;9.63;;;15.20;60.20;;;;;;20923872;28;20116;-57
2024/01/29 17:25:45;;;;;;;14.75;8.13;;;14.90;59.70;;;;;;20922126;28;20025;-55
2024/01/29 17:35:47;;;;;;;14.52;8.73;;;14.60;60.50;;;;;;20922518;28;20040;-57
2024/01/29 17:45:50;;;;;;;19.08;8.55;;;14.40;61.20;;;;;;20921177;28;20107;-58
2024/01/29 17:55:53;;;;;;;13.93;7.93;;;14.30;61.60;;;;;;20922966;28;20057;-57
2024/01/29 18:05:57;;;;;;;16.27;8.55;;;14.30;62.00;;;;;;20918655;28;20025;-57
2024/01/29 18:16:00;;;;;;;29.43;16.07;;;14.50;63.80;;;;;;20917641;28;20041;-58
2024/01/29 18:26:04;;;;;;;15.90;8.85;;;14.30;62.70;;;;;;20916792;28;20033;-57
2024/01/29 18:36:05;;;;;;;23.42;11.35;;;14.20;62.60;;;;;;20917281;28;20399;-57
2024/01/29 18:46:08;;;;;;;17.65;10.85;;;14.00;63.00;;;;;;20915177;28;20461;-55
2024/01/29 18:56:11;;;;;;;22.88;12.75;;;13.90;63.40;;;;;;20912394;28;20053;-58
2024/01/29 19:06:12;;;;;;;27.23;12.93;;;13.80;63.80;;;;;;20915276;28;20481;-55
2024/01/29 19:16:15;;;;;;;112.70;77.57;;;13.80;64.00;;;;;;20915144;28;20057;-58
2024/01/29 19:26:16;;;;;;;27.38;15.32;;;13.90;64.70;;;;;;20912830;28;20068;-57
2024/01/29 19:36:20;;;;;;;25.15;14.95;;;13.80;64.50;;;;;;20913406;28;20075;-57
2024/01/29 19:46:23;;;;;;;31.65;14.45;;;13.70;64.70;;;;;;20912463;28;20025;-57
2024/01/29 19:56:26;;;;;;;25.02;15.80;;;13.60;64.90;;;;;;20911072;28;20045;-57
2024/01/29 20:06:27;;;;;;;30.27;18.58;;;13.60;65.20;;;;;;20910115;28;20032;-57
2024/01/29 20:16:34;;;;;;;27.70;14.25;;;13.40;65.50;;;;;;20911191;28;20398;-58
2024/01/29 20:26:41;;;;;;;24.98;18.70;;;13.30;66.00;;;;;;20909385;28;20052;-59
2024/01/29 20:36:42;;;;;;;26.55;15.15;;;13.20;66.40;;;;;;20909255;28;20037;-58
2024/01/29 20:46:45;;;;;;;27.98;18.48;;;13.00;67.20;;;;;;20909693;28;20102;-58
2024/01/29 20:56:47;;;;;;;35.00;22.93;;;12.90;67.60;;;;;;20908214;28;20095;-56
2024/01/29 21:06:48;;;;;;;26.88;17.83;;;12.90;67.60;;;;;;20909316;28;20357;-58
2024/01/29 21:16:49;;;;;;;24.75;17.13;;;12.90;67.60;;;;;;20915040;28;20040;-56
2024/01/29 21:26:50;;;;;;;27.83;17.45;;;12.80;67.80;;;;;;20922931;28;20108;-58
2024/01/29 21:36:52;;;;;;;21.42;15.60;;;12.80;68.00;;;;;;20923451;28;20060;-56
2024/01/29 21:46:53;;;;;;;36.80;20.92;;;12.40;68.60;;;;;;20919000;28;20037;-57
2024/01/29 21:56:54;;;;;;;25.73;14.80;;;12.30;69.10;;;;;;20919905;28;20041;-56
2024/01/29 22:06:56;;;;;;;23.08;14.18;;;12.20;69.30;;;;;;20911017;28;20040;-57
2024/01/29 22:16:57;;;;;;;21.67;13.93;;;12.20;69.30;;;;;;20916423;28;20362;-57
2024/01/29 22:26:58;;;;;;;40.80;28.75;;;12.20;69.30;;;;;;20918137;28;20056;-57
2024/01/29 22:36:58;;;;;;;26.52;13.25;;;12.10;69.40;;;;;;20917655;28;20496;-57
2024/01/29 22:46:59;;;;;;;22.52;14.00;;;11.80;69.90;;;;;;20917889;28;20553;-55
2024/01/29 22:57:02;;;;;;;26.48;14.55;;;11.70;70.30;;;;;;20917338;28;20064;-55
2024/01/29 23:07:03;;;;;;;20.65;15.18;;;11.80;70.20;;;;;;20915142;28;20041;-58
2024/01/29 23:17:04;;;;;;;32.38;17.35;;;11.80;70.00;;;;;;20915716;28;20385;-57
2024/01/29 23:27:05;;;;;;;23.95;16.08;;;11.80;70.30;;;;;;20915215;28;20074;-57
2024/01/29 23:37:23;;;;;;;22.67;14.35;;;11.70;70.50;;;;;;20913554;28;20108;-57
2024/01/29 23:47:24;;;;;;;24.17;14.45;;;11.70;70.30;;;;;;20913693;28;20059;-57
2024/01/29 23:57:25;;;;;;;25.15;14.55;;;11.60;70.30;;;;;;20913001;28;20047;-57
